Time;durP1;ratioP1;P1;durP2;ratioP2;P2;SDS_P1;SDS_P2;PMS_P1;PMS_P2;Temp;Humidity;BMP_temperature;BMP_pressure;BME280_temperature;BME280_humidity;BME280_pressure;Samples;Min_cycle;Max_cycle;Signal;HPM_P1;HPM_P2
2020/12/24 00:00:46;;;;;;;1.40;0.90;;;12.70;95.80;;;12.51;89.36;97678.66;5072300;28;20669;-67
2020/12/24 00:03:15;;;;;;;1.50;0.87;;;12.80;95.60;;;12.44;90.85;97669.69;5070696;28;20703;-67
2020/12/24 00:05:42;;;;;;;1.30;0.93;;;12.70;95.50;;;12.41;90.88;97673.38;5063657;28;20635;-67
2020/12/24 00:08:10;;;;;;;1.30;0.90;;;12.70;95.70;;;12.40;90.18;97669.13;5069261;28;21274;-67
2020/12/24 00:10:38;;;;;;;1.57;0.80;;;12.70;95.70;;;12.38;89.65;97676.25;5070302;28;21247;-67
2020/12/24 00:13:05;;;;;;;1.37;0.80;;;12.60;95.80;;;12.35;91.30;97673.06;5070213;28;20656;-67
2020/12/24 00:15:33;;;;;;;1.97;0.90;;;12.50;96.00;;;12.35;90.59;97673.06;5070039;28;20637;-67
2020/12/24 00:18:18;;;;;;;1.60;1.00;;;12.60;95.90;;;12.32;91.33;97668.06;5070027;28;21036;-67
2020/12/24 00:20:46;;;;;;;1.67;1.00;;;12.60;96.10;;;12.33;91.33;97669.75;5069781;28;21182;-67
2020/12/24 00:23:14;;;;;;;1.03;0.70;;;12.60;96.40;;;12.32;91.12;97671.50;5053400;28;20635;-67
2020/12/24 00:25:41;;;;;;;2.00;1.20;;;12.60;96.10;;;12.30;90.26;97676.06;5070440;28;20634;-67
2020/12/24 00:28:08;;;;;;;1.20;0.80;;;12.50;95.90;;;12.33;90.17;97662.72;5070758;28;20664;-67
2020/12/24 00:30:40;;;;;;;2.10;0.73;;;12.60;96.00;;;12.24;89.96;97673.94;5052757;28;20640;-67
2020/12/24 00:33:09;;;;;;;1.63;0.90;;;12.50;95.70;;;12.29;89.21;97673.56;5066670;28;20755;-67
2020/12/24 00:35:38;;;;;;;1.17;0.70;;;12.50;95.70;;;12.28;90.75;97680.59;5071362;28;20873;-67
2020/12/24 00:38:06;;;;;;;1.10;0.70;;;12.50;95.50;;;12.19;89.77;97666.59;5071275;28;21092;-67
2020/12/24 00:40:34;;;;;;;1.00;0.63;;;12.50;95.40;;;12.21;90.46;97659.44;5070100;28;20674;-67
2020/12/24 00:43:01;;;;;;;1.60;0.73;;;12.40;95.40;;;12.20;90.08;97665.66;5070145;28;20639;-67
2020/12/24 00:45:29;;;;;;;3.17;0.80;;;12.40;95.20;;;12.10;89.04;97662.09;5051062;28;20644;-67
2020/12/24 00:47:57;;;;;;;2.67;0.83;;;12.40;95.20;;;12.04;89.49;97667.81;5069628;28;20616;-67
2020/12/24 00:50:24;;;;;;;3.70;0.90;;;12.20;94.80;;;11.81;88.00;97667.06;5067756;28;21051;-67
2020/12/24 00:52:53;;;;;;;1.77;0.77;;;12.00;94.10;;;11.80;87.86;97668.03;5055613;28;21212;-67
2020/12/24 00:55:20;;;;;;;0.90;0.60;;;12.00;94.50;;;11.85;88.09;97675.50;5053208;28;20639;-67
2020/12/24 00:57:48;;;;;;;2.27;0.73;;;12.10;94.50;;;11.86;86.30;97669.31;5052749;28;20705;-67
2020/12/24 01:00:16;;;;;;;1.40;0.83;;;12.10;93.60;;;11.88;85.72;97677.88;5052680;28;21035;-67
2020/12/24 01:02:43;;;;;;;1.20;0.80;;;12.20;93.10;;;11.90;80.80;97657.66;5050269;28;20663;-67
2020/12/24 01:05:11;;;;;;;3.17;0.80;;;12.10;91.20;;;11.91;82.44;97672.41;5069878;28;20647;-67
2020/12/24 01:07:38;;;;;;;2.83;0.60;;;12.10;90.50;;;11.72;82.31;97676.59;5069354;28;21162;-67
2020/12/24 01:10:07;;;;;;;1.17;0.70;;;11.90;90.90;;;11.74;80.19;97690.34;5071336;28;20730;-67
2020/12/24 01:12:35;;;;;;;1.80;0.90;;;12.00;88.80;;;11.75;80.52;97689.41;5062516;28;20635;-67
2020/12/24 01:15:06;;;;;;;1.10;0.63;;;12.00;90.30;;;11.77;80.55;97698.78;5069087;28;20735;-67
2020/12/24 01:17:35;;;;;;;1.13;0.50;;;12.00;90.40;;;11.55;79.97;97690.16;5052284;28;21065;-67
2020/12/24 01:20:04;;;;;;;0.97;0.60;;;11.90;87.90;;;11.61;79.24;97695.72;5066840;28;20646;-67
2020/12/24 01:22:33;;;;;;;0.90;0.47;;;11.90;88.60;;;11.67;81.49;97689.19;5069379;28;20642;-67
2020/12/24 01:25:01;;;;;;;0.80;0.40;;;11.90;90.00;;;11.66;78.66;97690.97;5070095;28;20639;-67
2020/12/24 01:27:29;;;;;;;2.47;0.70;;;11.90;87.40;;;11.67;81.31;97689.19;5070049;28;21179;-67
2020/12/24 01:29:56;;;;;;;2.00;0.53;;;11.90;88.40;;;11.63;79.78;97682.56;5069647;28;20662;-67
2020/12/24 01:32:24;;;;;;;1.77;0.60;;;11.90;88.80;;;11.59;81.41;97696.78;5068342;28;20659;-67
2020/12/24 01:34:52;;;;;;;1.33;0.60;;;11.90;89.50;;;11.57;82.07;97693.47;5071157;28;20763;-67
2020/12/24 01:37:19;;;;;;;0.90;0.53;;;11.90;89.50;;;11.56;80.40;97710.09;5070346;28;20994;-67
2020/12/24 01:39:47;;;;;;;1.17;0.50;;;11.80;88.50;;;11.59;80.16;97715.06;5068457;28;21213;-67
2020/12/24 01:42:17;;;;;;;1.40;0.50;;;11.80;88.20;;;11.57;79.33;97714.38;5069328;28;20671;-67
2020/12/24 01:44:46;;;;;;;0.80;0.50;;;11.80;85.60;;;11.48;79.77;97721.13;5069958;28;21170;-67
2020/12/24 01:47:14;;;;;;;1.03;0.50;;;11.80;85.90;;;11.44;80.21;97718.84;5067821;28;20668;-67
2020/12/24 01:49:42;;;;;;;1.20;0.60;;;11.70;86.90;;;11.23;81.54;97712.69;5067257;28;20778;-67
2020/12/24 01:52:29;;;;;;;0.70;0.40;;;11.50;87.30;;;11.09;78.57;97704.25;5070020;28;21193;-67
2020/12/24 01:54:57;;;;;;;0.90;0.40;;;11.40;86.20;;;11.04;81.13;97701.16;5068700;28;20643;-67
2020/12/24 01:57:25;;;;;;;0.90;0.60;;;11.30;88.20;;;11.01;81.86;97715.25;5071112;28;20630;-67
2020/12/24 01:59:56;;;;;;;2.90;0.70;;;11.30;89.20;;;10.80;83.25;97720.47;5070306;28;20643;-67
2020/12/24 02:02:24;;;;;;;0.70;0.43;;;11.10;91.00;;;10.70;85.38;97740.34;5069895;28;20734;-67
2020/12/24 02:04:51;;;;;;;1.00;0.60;;;11.00;92.10;;;10.74;85.34;97773.09;5070785;28;20667;-67
2020/12/24 02:07:19;;;;;;;1.13;0.60;;;11.00;92.60;;;10.72;87.43;97781.00;5065443;28;20627;-67
2020/12/24 02:09:49;;;;;;;3.23;0.70;;;10.90;93.30;;;10.70;89.29;97762.03;5059375;28;20739;-67
2020/12/24 02:12:17;;;;;;;1.70;0.60;;;10.90;94.10;;;10.77;88.89;97767.63;5069287;28;20639;-67
2020/12/24 02:14:45;;;;;;;2.97;0.87;;;11.10;94.20;;;10.68;89.56;97763.09;5072066;28;20671;-67
2020/12/24 02:17:13;;;;;;;1.33;0.53;;;10.90;94.50;;;10.61;89.92;97739.22;5054137;28;20639;-67
2020/12/24 02:19:41;;;;;;;1.00;0.50;;;10.90;95.00;;;10.79;90.01;97705.75;5070560;28;20709;-67
2020/12/24 02:22:11;;;;;;;1.13;0.60;;;11.00;94.90;;;10.75;90.51;97705.16;5072087;28;20636;-67
2020/12/24 02:24:42;;;;;;;0.80;0.57;;;11.00;95.40;;;10.75;90.71;97707.75;5074330;28;21220;-67
2020/12/24 02:27:09;;;;;;;1.67;0.70;;;11.00;95.20;;;10.74;89.60;97695.66;5072944;28;20658;-67
2020/12/24 02:29:37;;;;;;;0.70;0.40;;;11.00;95.40;;;10.73;90.68;97630.56;5072045;28;20730;-67
2020/12/24 02:32:05;;;;;;;2.37;0.77;;;11.00;95.50;;;10.68;89.66;97633.53;5055492;28;20623;-67
2020/12/24 02:34:34;;;;;;;0.90;0.50;;;10.90;95.10;;;10.56;90.36;97608.38;5073525;28;20725;-67
2020/12/24 02:37:01;;;;;;;1.60;0.40;;;10.80;95.10;;;10.52;89.14;97616.53;5070039;28;20649;-67
2020/12/24 02:39:29;;;;;;;1.43;0.60;;;10.80;95.20;;;10.60;89.47;97619.41;5071864;28;20667;-67
2020/12/24 02:41:58;;;;;;;2.77;0.63;;;10.80;95.40;;;10.67;90.30;97620.59;5072218;28;20636;-67
2020/12/24 02:44:26;;;;;;;1.10;0.60;;;10.90;95.50;;;10.74;91.15;97621.81;5073009;28;21285;-67
2020/12/24 02:46:53;;;;;;;1.00;0.60;;;11.00;95.90;;;10.77;91.10;97613.75;5053403;28;21071;-67
2020/12/24 02:49:21;;;;;;;0.90;0.60;;;11.00;95.50;;;10.77;90.55;97609.34;5069646;28;20640;-67
2020/12/24 02:51:48;;;;;;;1.17;0.63;;;11.00;95.80;;;10.74;90.12;97599.16;5072726;28;20627;-67
2020/12/24 02:54:16;;;;;;;1.00;0.50;;;11.00;95.50;;;10.67;90.93;97599.75;5074109;28;20667;-67
2020/12/24 02:56:44;;;;;;;0.93;0.50;;;11.00;95.40;;;10.72;89.93;97605.44;5070933;28;20674;-67
2020/12/24 02:59:12;;;;;;;2.43;0.70;;;11.00;95.60;;;10.79;91.20;97604.84;5073247;28;20643;-67
2020/12/24 03:01:39;;;;;;;0.80;0.50;;;11.00;95.60;;;10.83;91.07;97606.28;5054184;28;20773;-67
2020/12/24 03:04:07;;;;;;;1.50;0.53;;;11.10;95.70;;;10.84;89.84;97606.16;5068006;28;21157;-67
2020/12/24 03:06:34;;;;;;;0.90;0.50;;;11.10;95.60;;;10.86;90.61;97600.81;5071386;28;20671;-67
2020/12/24 03:09:02;;;;;;;1.60;0.70;;;11.10;95.60;;;10.83;89.24;97598.44;5071384;28;20658;-67
2020/12/24 03:11:29;;;;;;;2.07;0.90;;;11.10;95.40;;;10.84;91.17;97600.94;5069481;28;20667;-67
2020/12/24 03:13:58;;;;;;;1.37;0.73;;;11.10;95.50;;;10.87;89.92;97613.75;5072875;28;20750;-67
2020/12/24 03:16:25;;;;;;;3.40;0.80;;;11.10;95.60;;;10.89;91.40;97624.88;5053246;28;21259;-67
2020/12/24 03:18:53;;;;;;;0.80;0.50;;;11.20;95.60;;;10.91;89.75;97627.38;5070331;28;21298;-67
2020/12/24 03:21:24;;;;;;;1.20;0.70;;;11.20;95.60;;;10.89;89.46;97622.28;5068863;28;20645;-67
2020/12/24 03:23:51;;;;;;;1.67;0.70;;;11.20;95.50;;;10.87;90.32;97632.00;5070490;28;20628;-67
2020/12/24 03:26:19;;;;;;;1.20;0.70;;;11.10;95.60;;;10.88;90.50;97628.47;5071596;28;20997;-67
2020/12/24 03:28:46;;;;;;;2.20;0.80;;;11.20;95.50;;;10.85;89.67;97636.53;5072870;28;21170;-67
2020/12/24 03:31:21;;;;;;;0.90;0.53;;;11.10;95.60;;;10.83;91.28;97616.72;5069792;28;21253;-67
2020/12/24 03:33:49;;;;;;;1.23;0.73;;;11.10;95.50;;;10.79;90.72;97619.66;5052381;28;21031;-67
2020/12/24 03:36:17;;;;;;;2.50;0.73;;;11.10;95.20;;;10.73;89.74;97614.91;5053199;28;20672;-67
2020/12/24 03:38:45;;;;;;;2.03;0.67;;;11.00;95.00;;;10.70;90.24;97596.91;5073066;28;20619;-67
2020/12/24 03:41:12;;;;;;;1.10;0.77;;;11.00;95.10;;;10.66;89.83;97598.91;5071064;28;20651;-67
2020/12/24 03:43:41;;;;;;;0.97;0.60;;;10.90;94.80;;;10.54;88.15;97591.19;5070998;28;20704;-67
2020/12/24 03:46:09;;;;;;;2.03;0.70;;;10.80;94.40;;;10.48;87.90;97591.69;5071837;28;20635;-67
2020/12/24 03:48:37;;;;;;;1.20;0.80;;;10.80;94.10;;;10.34;87.53;97610.09;5070176;28;20722;-67
2020/12/24 03:51:05;;;;;;;1.13;0.50;;;10.60;93.70;;;10.22;87.31;97590.19;5069353;28;20690;-67
2020/12/24 03:53:32;;;;;;;0.70;0.40;;;10.50;93.40;;;10.09;86.94;97581.63;5071345;28;20754;-67
2020/12/24 03:56:01;;;;;;;1.73;0.70;;;10.30;93.30;;;9.97;87.44;97586.94;5054070;28;20635;-67
2020/12/24 03:58:28;;;;;;;2.33;0.50;;;10.30;93.50;;;9.88;88.28;97588.41;5072078;28;21209;-67
2020/12/24 04:00:55;;;;;;;2.20;0.50;;;10.20;93.90;;;9.89;88.25;97574.44;5068814;28;21053;-67
2020/12/24 04:03:23;;;;;;;0.93;0.40;;;10.10;94.20;;;9.81;88.13;97572.50;5071076;28;20762;-67
2020/12/24 04:05:51;;;;;;;1.73;0.50;;;10.10;94.20;;;9.80;88.11;97576.03;5069389;28;20642;-67
2020/12/24 04:08:19;;;;;;;1.63;0.50;;;10.00;94.30;;;9.79;88.30;97583.03;5052063;28;20638;-67
2020/12/24 04:10:46;;;;;;;0.80;0.50;;;10.00;94.30;;;9.78;88.48;97601.38;5071395;28;20631;-67
2020/12/24 04:13:14;;;;;;;0.90;0.53;;;10.00;94.30;;;9.78;88.43;97609.19;5070768;28;20973;-67
2020/12/24 04:15:41;;;;;;;1.37;0.50;;;10.00;94.80;;;9.74;88.26;97610.34;5069785;28;20734;-67
2020/12/24 04:18:09;;;;;;;0.97;0.50;;;10.00;94.50;;;9.77;87.95;97610.13;5069458;28;21214;-67
2020/12/24 04:20:57;;;;;;;0.90;0.57;;;10.00;94.10;;;9.83;88.41;97604.47;5068485;28;20677;-67
2020/12/24 04:23:24;;;;;;;1.43;0.50;;;10.00;94.30;;;9.88;88.60;97604.03;5070435;28;20984;-67
2020/12/24 04:25:52;;;;;;;1.80;0.50;;;10.10;94.50;;;9.94;88.60;97606.22;5070368;28;21369;-67
2020/12/24 04:28:19;;;;;;;1.27;0.50;;;10.20;94.40;;;10.03;87.89;97600.31;5067703;28;20284;-67
2020/12/24 04:30:47;;;;;;;1.10;0.47;;;10.20;94.40;;;10.09;86.94;97597.25;5071510;28;20669;-67
2020/12/24 04:33:14;;;;;;;2.07;0.60;;;10.30;93.90;;;10.12;86.95;97598.81;5070679;28;20632;-67
2020/12/24 04:35:42;;;;;;;0.70;0.40;;;10.40;93.80;;;10.09;87.42;97605.09;5068247;28;20654;-67
2020/12/24 04:38:11;;;;;;;0.80;0.50;;;10.40;93.50;;;10.09;86.78;97607.69;5069246;28;20636;-67
2020/12/24 04:40:38;;;;;;;1.43;0.50;;;10.30;93.40;;;10.07;87.54;97608.72;5052406;28;20667;-67
2020/12/24 04:43:06;;;;;;;1.90;0.47;;;10.30;93.50;;;9.99;86.82;97604.09;5070827;28;20663;-67
2020/12/24 04:45:34;;;;;;;2.00;0.50;;;10.30;93.30;;;9.99;86.51;97601.47;5069261;28;20734;-67
2020/12/24 04:48:01;;;;;;;1.47;0.60;;;10.20;93.10;;;9.88;86.49;97603.19;5068530;28;20627;-67
2020/12/24 04:50:30;;;;;;;1.17;0.70;;;10.10;92.90;;;9.87;86.88;97601.53;5067881;28;20646;-67
2020/12/24 04:52:59;;;;;;;2.40;0.70;;;10.10;93.30;;;9.78;86.52;97604.81;5070491;28;20639;-67
2020/12/24 04:55:27;;;;;;;1.23;0.57;;;10.10;93.10;;;9.77;86.41;97600.53;5051338;28;20937;-67
2020/12/24 04:57:59;;;;;;;2.70;0.50;;;10.00;93.10;;;9.65;87.43;97596.25;5063364;28;20738;-67
2020/12/24 05:00:27;;;;;;;1.87;0.50;;;9.90;93.80;;;9.59;87.17;97586.28;5068173;28;20639;-67
2020/12/24 05:03:04;;;;;;;1.03;0.57;;;9.90;94.00;;;9.49;87.41;97592.25;5068539;28;20750;-67
2020/12/24 05:05:33;;;;;;;1.27;0.57;;;9.80;94.10;;;9.42;87.65;97591.84;5070292;28;20635;-67
2020/12/24 05:08:04;;;;;;;1.00;0.60;;;9.70;94.20;;;9.42;87.80;97586.63;5070441;28;20635;-67
2020/12/24 05:10:34;;;;;;;0.97;0.40;;;9.70;94.20;;;9.46;87.77;97590.69;5066925;28;20673;-67
2020/12/24 05:13:17;;;;;;;2.17;0.70;;;9.70;94.40;;;9.40;87.81;97583.31;5070474;28;20680;-67
2020/12/24 05:15:45;;;;;;;1.33;0.50;;;9.60;94.40;;;9.28;88.17;97580.78;5069160;28;21224;-67
2020/12/24 05:18:18;;;;;;;1.07;0.50;;;9.50;94.20;;;9.28;87.92;97580.78;5069413;28;20701;-67
2020/12/24 05:20:46;;;;;;;1.47;0.40;;;9.50;94.20;;;9.21;87.73;97563.91;5068429;28;20628;-67
2020/12/24 05:23:16;;;;;;;1.13;0.40;;;9.50;94.60;;;9.23;88.50;97587.22;5069131;28;21073;-67
2020/12/24 05:25:45;;;;;;;1.33;0.50;;;9.50;94.80;;;9.24;89.13;97581.91;5069468;28;20745;-67
2020/12/24 05:28:21;;;;;;;1.57;0.50;;;9.50;95.20;;;9.13;89.77;97576.66;5053291;28;20696;-67
2020/12/24 05:30:49;;;;;;;1.37;0.50;;;9.40;95.20;;;9.16;89.54;97580.81;5066078;28;20639;-67
2020/12/24 05:33:28;;;;;;;1.50;0.60;;;9.40;95.40;;;9.14;89.74;97585.28;5068675;28;20634;-67
2020/12/24 05:36:15;;;;;;;0.87;0.50;;;9.40;95.40;;;9.03;89.57;97588.63;5069804;28;20630;-67
2020/12/24 05:38:43;;;;;;;1.67;1.03;;;9.30;95.90;;;8.89;91.23;97598.34;5065834;28;20647;-67
2020/12/24 05:41:32;;;;;;;1.53;0.50;;;9.20;96.10;;;8.76;91.42;97599.31;5069932;28;20666;-67
2020/12/24 05:44:02;;;;;;;0.87;0.57;;;9.00;95.90;;;8.64;90.30;97590.56;5051891;28;20645;-67
2020/12/24 05:46:40;;;;;;;1.47;0.43;;;8.90;95.70;;;8.65;91.78;97579.25;5068583;28;21219;-67
2020/12/24 05:49:16;;;;;;;0.70;0.50;;;8.90;96.20;;;8.65;91.26;97573.22;5069951;28;20639;-67
2020/12/24 05:52:01;;;;;;;0.90;0.40;;;8.90;96.50;;;8.70;91.66;97571.13;5058375;28;20639;-67
2020/12/24 05:54:30;;;;;;;1.40;0.40;;;8.90;96.50;;;8.74;91.25;97563.00;5074300;28;21053;-67
2020/12/24 05:57:01;;;;;;;4.20;0.50;;;9.00;96.50;;;8.79;91.21;97562.69;5071546;28;20662;-67
2020/12/24 05:59:30;;;;;;;0.70;0.40;;;9.10;96.40;;;8.86;90.46;97554.38;5073754;28;20742;-67
2020/12/24 06:02:05;;;;;;;1.23;0.47;;;9.10;96.10;;;8.96;89.92;97555.38;5073860;28;21243;-67
2020/12/24 06:04:49;;;;;;;0.67;0.40;;;9.20;96.10;;;9.07;90.02;97558.06;5073670;28;20757;-67
2020/12/24 06:07:31;;;;;;;2.63;0.60;;;9.30;95.90;;;9.14;88.71;97561.88;5072846;28;20711;-67
2020/12/24 06:10:07;;;;;;;0.70;0.50;;;9.40;95.40;;;9.09;88.44;97562.19;5054083;28;20978;-67
2020/12/24 06:12:52;;;;;;;0.87;0.47;;;9.40;95.40;;;9.14;88.30;97565.31;5072496;28;20639;-67
2020/12/24 06:15:20;;;;;;;3.27;1.00;;;9.40;94.90;;;9.22;87.25;97562.16;5068810;28;20670;-67
2020/12/24 06:17:50;;;;;;;1.30;0.60;;;9.40;94.70;;;9.26;87.42;97561.84;5070648;28;20643;-67
2020/12/24 06:20:20;;;;;;;2.60;0.70;;;9.50;94.40;;;9.33;86.74;97555.25;5073602;28;21174;-67
2020/12/24 06:22:48;;;;;;;2.87;0.80;;;9.60;94.10;;;9.34;86.62;97562.13;5072759;28;20730;-67
2020/12/24 06:25:17;;;;;;;2.13;0.90;;;9.60;94.00;;;9.38;87.13;97553.97;5071012;28;20639;-67
2020/12/24 06:27:50;;;;;;;1.77;0.70;;;9.60;93.90;;;9.35;85.85;97540.38;5071852;28;21197;-67
2020/12/24 06:30:23;;;;;;;1.83;0.60;;;9.60;93.40;;;9.40;86.02;97526.06;5072522;28;21197;-67
2020/12/24 06:32:59;;;;;;;0.83;0.50;;;9.70;93.60;;;9.47;85.75;97519.47;5071618;28;20704;-67
2020/12/24 06:35:34;;;;;;;0.90;0.60;;;9.80;93.60;;;9.54;85.62;97515.47;5072778;28;20758;-67
2020/12/24 06:38:02;;;;;;;1.87;0.80;;;9.80;93.70;;;9.59;85.32;97512.53;5072014;28;20630;-67
2020/12/24 06:40:32;;;;;;;1.73;0.90;;;9.80;93.10;;;9.66;85.36;97508.53;5072892;28;20738;-67
2020/12/24 06:43:01;;;;;;;2.97;0.73;;;9.90;93.30;;;9.66;84.71;97516.34;5055312;28;20651;-67
2020/12/24 06:45:34;;;;;;;1.77;0.70;;;10.00;92.40;;;9.67;84.94;97510.22;5055421;28;20623;-67
2020/12/24 06:48:21;;;;;;;1.60;0.70;;;10.00;92.70;;;9.70;84.97;97518.63;5073676;28;20641;-67
2020/12/24 06:50:50;;;;;;;1.70;0.60;;;10.00;92.50;;;9.79;84.72;97504.06;5067812;28;20636;-67
2020/12/24 06:53:36;;;;;;;0.90;0.57;;;10.10;92.20;;;9.85;84.80;97500.06;5066857;28;20659;-67
2020/12/24 06:56:28;;;;;;;6.00;0.70;;;10.10;92.20;;;9.79;83.14;97494.50;5071454;28;21023;-69
2020/12/24 06:59:00;;;;;;;1.80;0.90;;;10.10;91.30;;;9.67;83.21;97499.81;5042000;28;20680;-68
2020/12/24 07:01:30;;;;;;;4.57;1.77;;;10.00;91.20;;;9.60;83.06;97494.19;5065458;28;20719;-68
2020/12/24 07:03:59;;;;;;;2.30;0.67;;;9.90;91.50;;;9.55;83.39;97488.50;5072186;28;20760;-68
2020/12/24 07:06:51;;;;;;;2.80;0.80;;;9.80;91.70;;;9.48;82.85;97486.47;5055271;28;20626;-68
2020/12/24 07:09:46;;;;;;;1.20;0.60;;;9.80;91.50;;;9.50;83.48;97493.22;5073322;28;21240;-68
2020/12/24 07:12:34;;;;;;;4.83;0.80;;;9.80;91.80;;;9.55;83.15;97491.13;5015122;28;20997;-67
2020/12/24 07:15:24;;;;;;;1.17;0.50;;;9.80;91.70;;;9.52;82.96;97488.72;5072381;28;20647;-67
2020/12/24 07:17:53;;;;;;;2.73;0.63;;;9.70;91.40;;;9.51;83.19;97479.25;5068089;28;20690;-67
2020/12/24 07:20:21;;;;;;;2.63;0.70;;;9.70;91.70;;;9.51;83.67;97483.63;5068380;28;20642;-67
2020/12/24 07:22:55;;;;;;;3.50;0.80;;;9.80;91.70;;;9.48;83.07;97483.88;5073899;28;20638;-67
2020/12/24 07:25:24;;;;;;;3.33;0.83;;;9.70;91.50;;;9.48;83.85;97489.06;5068564;28;20665;-67
2020/12/24 07:27:53;;;;;;;2.93;0.60;;;9.70;91.50;;;9.48;82.86;97489.06;5073914;28;20726;-67
2020/12/24 07:30:23;;;;;;;3.07;0.80;;;9.70;91.30;;;9.52;82.51;97500.94;5071888;28;21257;-67
2020/12/24 07:33:01;;;;;;;1.80;0.70;;;9.80;91.30;;;9.51;82.48;97492.28;5072509;28;20639;-68
2020/12/24 07:35:28;;;;;;;3.30;1.20;;;9.80;91.20;;;9.50;82.78;97497.59;5071503;28;20647;-67
2020/12/24 07:37:56;;;;;;;2.80;0.90;;;9.70;91.10;;;9.44;82.54;97493.69;5072079;28;20693;-67
2020/12/24 07:40:31;;;;;;;2.80;0.60;;;9.70;91.10;;;9.49;82.69;97496.75;5071745;28;20643;-67
2020/12/24 07:43:09;;;;;;;3.43;0.80;;;9.70;91.20;;;9.49;82.98;97501.16;5073190;28;20628;-67
2020/12/24 07:45:37;;;;;;;4.17;1.03;;;9.70;91.50;;;9.38;83.61;97493.28;5069715;28;20696;-67
2020/12/24 07:48:12;;;;;;;1.80;0.60;;;9.60;91.70;;;9.29;83.92;97488.78;5072896;28;20643;-68
2020/12/24 07:50:41;;;;;;;2.97;0.90;;;9.50;91.60;;;9.35;83.93;97485.72;5071239;28;20639;-67
2020/12/24 07:53:19;;;;;;;3.23;1.77;;;9.60;91.90;;;9.37;82.72;97485.59;5072301;28;20635;-67
2020/12/24 07:55:48;;;;;;;2.40;0.90;;;9.60;91.30;;;9.27;83.78;97469.81;5069556;28;20655;-67
2020/12/24 07:58:17;;;;;;;3.13;1.00;;;9.50;91.70;;;9.28;82.79;97481.91;5070985;28;21025;-68
2020/12/24 08:00:47;;;;;;;4.70;1.10;;;9.50;91.50;;;9.28;83.12;97473.28;5072508;28;20646;-67
2020/12/24 08:03:17;;;;;;;6.97;1.00;;;9.50;91.40;;;9.27;83.44;97484.63;5071951;28;20687;-67
2020/12/24 08:05:46;;;;;;;2.50;0.73;;;9.50;91.40;;;9.22;83.08;97478.94;5070976;28;20640;-68
2020/12/24 08:08:22;;;;;;;3.90;1.20;;;9.50;91.50;;;9.25;83.00;97471.72;5071425;28;20660;-67
2020/12/24 08:10:49;;;;;;;6.20;1.43;;;9.50;91.30;;;9.26;82.50;97464.72;5070750;28;20638;-68
2020/12/24 08:13:17;;;;;;;3.53;0.93;;;9.50;90.80;;;9.25;82.48;97469.13;5072176;28;20627;-69
2020/12/24 08:15:47;;;;;;;3.73;1.10;;;9.50;91.00;;;9.22;82.87;97471.94;5064805;28;20730;-67
2020/12/24 08:18:16;;;;;;;4.20;1.40;;;9.50;91.10;;;9.16;82.27;97467.19;5068396;28;20645;-67
2020/12/24 08:20:48;;;;;;;2.03;1.10;;;9.40;90.90;;;9.19;82.86;97472.16;5064455;28;20638;-67
2020/12/24 08:23:45;;;;;;;5.37;1.37;;;9.40;91.10;;;9.15;82.92;97475.91;5070448;28;20785;-67
2020/12/24 08:26:14;;;;;;;3.30;1.10;;;9.40;91.30;;;9.08;82.87;97469.50;5072197;28;20632;-69
2020/12/24 08:28:49;;;;;;;4.70;1.20;;;9.30;91.10;;;9.08;83.39;97463.47;5065256;28;20661;-68
2020/12/24 08:31:19;;;;;;;4.67;1.00;;;9.30;91.10;;;9.11;83.34;97466.69;5064929;28;21247;-68
2020/12/24 08:33:51;;;;;;;3.53;1.30;;;9.30;91.50;;;9.13;83.51;97461.38;5063937;28;21296;-68
2020/12/24 08:36:22;;;;;;;3.50;1.20;;;9.30;91.60;;;9.12;82.53;97475.31;5065470;28;20244;-68
2020/12/24 08:38:50;;;;;;;2.40;1.00;;;9.30;91.40;;;9.13;84.03;97482.19;5046006;28;20636;-67
2020/12/24 08:41:23;;;;;;;2.47;0.80;;;9.40;91.90;;;9.12;83.63;97464.91;5066205;28;21045;-70
2020/12/24 08:43:56;;;;;;;2.50;0.80;;;9.30;91.80;;;9.18;83.15;97462.69;5067984;28;20650;-68
2020/12/24 08:46:23;;;;;;;2.40;0.77;;;9.40;91.60;;;9.14;83.16;97466.47;5063558;28;20632;-68
2020/12/24 08:48:52;;;;;;;4.90;1.33;;;9.40;91.80;;;9.17;83.72;97460.19;5065670;28;20642;-68
2020/12/24 08:51:20;;;;;;;1.73;1.00;;;9.40;91.80;;;9.18;83.14;97467.88;5070350;28;20643;-68
2020/12/24 08:54:07;;;;;;;2.97;1.10;;;9.40;91.60;;;9.20;84.05;97467.78;5068697;28;20635;-68
2020/12/24 08:56:37;;;;;;;5.03;1.40;;;9.50;91.80;;;9.22;83.44;97474.53;5063075;28;20644;-68
2020/12/24 08:59:09;;;;;;;5.17;1.40;;;9.50;91.90;;;9.33;83.80;97473.75;5049036;28;20662;-69
2020/12/24 09:01:42;;;;;;;2.90;1.10;;;9.50;91.70;;;9.23;82.58;97467.56;5064647;28;20693;-69
2020/12/24 09:04:15;;;;;;;3.90;0.93;;;9.50;91.00;;;9.29;82.34;97478.38;5062504;28;20657;-69
2020/12/24 09:06:44;;;;;;;3.13;0.93;;;9.50;90.90;;;9.21;81.51;97456.44;5051462;28;20640;-68
2020/12/24 09:09:22;;;;;;;2.63;1.20;;;9.50;90.50;;;9.26;81.53;97476.00;5062391;28;20737;-67
2020/12/24 09:11:51;;;;;;;3.70;1.30;;;9.50;90.90;;;9.25;82.19;97483.91;5071535;28;20639;-68
2020/12/24 09:14:20;;;;;;;4.83;1.00;;;9.50;91.00;;;9.19;81.68;97477.38;5066272;28;21097;-65
2020/12/24 09:16:57;;;;;;;3.30;0.70;;;9.40;90.40;;;9.18;81.91;97470.50;5053071;28;20623;-65
2020/12/24 09:19:26;;;;;;;2.27;0.97;;;9.40;90.50;;;9.16;81.95;97492.38;5069769;28;20642;-67
2020/12/24 09:21:56;;;;;;;1.50;0.60;;;9.40;90.60;;;9.14;82.50;97495.09;5070357;28;20693;-67
2020/12/24 09:24:25;;;;;;;2.20;0.87;;;9.40;90.80;;;9.16;82.11;97498.41;5072829;28;20638;-67
2020/12/24 09:26:55;;;;;;;1.10;0.80;;;9.40;90.90;;;9.17;82.53;97494.00;5075507;28;20696;-68
2020/12/24 09:29:27;;;;;;;2.30;0.80;;;9.50;91.10;;;9.15;82.49;97491.53;5078608;28;21238;-68
2020/12/24 09:31:57;;;;;;;1.90;0.77;;;9.40;90.80;;;9.24;82.16;97490.84;5088977;28;20638;-67
2020/12/24 09:34:26;;;;;;;1.73;0.83;;;9.50;90.80;;;9.22;81.95;97487.56;5075554;28;20671;-66
2020/12/24 09:36:54;;;;;;;1.47;0.60;;;9.50;90.70;;;9.23;81.65;97494.44;5062085;28;20630;-67
2020/12/24 09:39:23;;;;;;;1.93;0.70;;;9.50;90.80;;;9.14;83.05;97502.03;5076091;28;20609;-67
2020/12/24 09:41:51;;;;;;;1.83;0.70;;;9.40;90.70;;;9.23;81.66;97501.38;5076167;28;20746;-68
2020/12/24 09:44:18;;;;;;;2.80;0.83;;;9.50;90.80;;;9.22;82.09;97499.75;5075212;28;20715;-63
2020/12/24 09:46:48;;;;;;;1.63;0.80;;;9.50;90.90;;;9.29;82.01;97488.78;5087442;28;20633;-67
2020/12/24 09:49:17;;;;;;;1.73;0.70;;;9.60;90.80;;;9.30;81.67;97490.41;5082090;28;20681;-67
2020/12/24 09:51:47;;;;;;;2.17;0.67;;;9.60;90.80;;;9.34;81.72;97494.47;5065511;28;20640;-66
2020/12/24 09:54:30;;;;;;;2.00;1.20;;;9.60;90.50;;;9.32;81.54;97495.50;5061377;28;20915;-68
2020/12/24 09:56:58;;;;;;;1.63;0.67;;;9.60;90.50;;;9.51;81.17;97494.06;5073784;28;20693;-67
2020/12/24 09:59:26;;;;;;;1.43;0.70;;;9.70;90.50;;;9.49;80.33;97490.75;5069433;28;20627;-67
2020/12/24 10:01:54;;;;;;;1.10;0.40;;;9.80;90.10;;;9.46;81.68;97494.38;5055546;28;20681;-65
2020/12/24 10:04:22;;;;;;;3.37;0.60;;;9.70;90.10;;;9.38;81.07;97496.72;5072988;28;21545;-68
2020/12/24 10:06:51;;;;;;;3.00;2.40;;;9.70;90.40;;;9.37;82.12;97483.84;5073247;28;20650;-67
2020/12/24 10:09:18;;;;;;;1.17;0.57;;;9.60;90.50;;;9.39;81.74;97497.56;5074309;28;20722;-68
2020/12/24 10:11:47;;;;;;;4.40;1.00;;;9.70;90.30;;;9.35;82.14;97483.13;5074942;28;20677;-68
2020/12/24 10:14:15;;;;;;;1.20;0.70;;;9.60;90.60;;;9.33;83.19;97485.00;5074670;28;21208;-67
2020/12/24 10:16:43;;;;;;;2.93;0.70;;;9.60;91.00;;;9.33;81.44;97484.16;5074650;28;20687;-68
2020/12/24 10:19:10;;;;;;;2.10;0.80;;;9.50;90.50;;;9.28;81.92;97476.69;5075139;28;20663;-68
2020/12/24 10:21:40;;;;;;;1.33;0.70;;;9.50;90.30;;;9.25;82.25;97474.31;5074538;28;20727;-68
2020/12/24 10:24:17;;;;;;;0.90;0.50;;;9.60;90.50;;;9.36;81.77;97473.53;5075254;28;20614;-67
2020/12/24 10:26:45;;;;;;;3.20;0.90;;;9.60;90.80;;;9.40;82.25;97476.63;5073168;28;20684;-67
2020/12/24 10:29:12;;;;;;;1.83;0.73;;;9.60;90.60;;;9.42;81.78;97466.09;5073913;28;20747;-67
2020/12/24 10:31:44;;;;;;;2.43;0.83;;;9.60;91.00;;;9.42;81.70;97468.69;5074962;28;21219;-67
2020/12/24 10:34:11;;;;;;;1.80;0.80;;;9.70;90.40;;;9.42;82.09;97469.53;5074139;28;20726;-67
2020/12/24 10:36:39;;;;;;;2.67;0.67;;;9.70;90.50;;;9.41;82.67;97460.06;5074292;28;20631;-67
2020/12/24 10:39:09;;;;;;;1.10;0.60;;;9.60;91.00;;;9.38;83.00;97456.03;5074881;28;20664;-62
2020/12/24 10:41:39;;;;;;;1.43;0.70;;;9.60;91.10;;;9.43;83.35;97459.97;5074009;28;20643;-67